sensor_id;sensor_type;location;lat;lon;timestamp;pressure;altitude;pressure_sealevel;temperature;humidity
12757;BME280;31601;48.042;12.240;2023-04-04T00:01:22;96849.28;;;1.60;53.98
12757;BME280;31601;48.042;12.240;2023-04-04T00:03:49;96845.19;;;1.69;54.05
12757;BME280;31601;48.042;12.240;2023-04-04T00:06:15;96841.34;;;1.75;53.68
12757;BME280;31601;48.042;12.240;2023-04-04T00:08:43;96849.84;;;1.53;54.31
12757;BME280;31601;48.042;12.240;2023-04-04T00:11:10;96843.38;;;1.47;54.42
12757;BME280;31601;48.042;12.240;2023-04-04T00:13:37;96849.22;;;1.38;54.82
12757;BME280;31601;48.042;12.240;2023-04-04T00:19:26;96833.50;;;1.52;54.83
12757;BME280;31601;48.042;12.240;2023-04-04T00:21:52;96841.38;;;1.27;55.13
12757;BME280;31601;48.042;12.240;2023-04-04T00:24:20;96836.09;;;1.28;55.07
12757;BME280;31601;48.042;12.240;2023-04-04T00:26:47;96833.03;;;0.99;55.79
12757;BME280;31601;48.042;12.240;2023-04-04T00:29:13;96836.88;;;1.17;55.52
12757;BME280;31601;48.042;12.240;2023-04-04T00:31:39;96835.47;;;1.13;55.64
12757;BME280;31601;48.042;12.240;2023-04-04T00:34:06;96833.84;;;1.23;55.31
12757;BME280;31601;48.042;12.240;2023-04-04T00:36:33;96828.41;;;1.15;55.42
12757;BME280;31601;48.042;12.240;2023-04-04T00:38:59;96825.34;;;1.10;55.60
12757;BME280;31601;48.042;12.240;2023-04-04T00:41:27;96827.25;;;0.95;56.00
12757;BME280;31601;48.042;12.240;2023-04-04T00:43:54;96824.94;;;0.79;56.49
12757;BME280;31601;48.042;12.240;2023-04-04T00:46:21;96824.84;;;1.05;55.81
12757;BME280;31601;48.042;12.240;2023-04-04T00:48:49;96815.97;;;1.20;55.78
12757;BME280;31601;48.042;12.240;2023-04-04T00:51:16;96824.56;;;0.97;55.11
12757;BME280;31601;48.042;12.240;2023-04-04T00:53:44;96817.88;;;1.18;55.67
12757;BME280;31601;48.042;12.240;2023-04-04T00:56:11;96817.63;;;1.21;55.64
12757;BME280;31601;48.042;12.240;2023-04-04T00:58:40;96818.75;;;1.06;55.60
12757;BME280;31601;48.042;12.240;2023-04-04T01:01:07;96807.84;;;0.89;55.94
12757;BME280;31601;48.042;12.240;2023-04-04T01:03:35;96807.34;;;0.84;56.16
12757;BME280;31601;48.042;12.240;2023-04-04T01:06:02;96809.22;;;1.06;56.11
12757;BME280;31601;48.042;12.240;2023-04-04T01:08:29;96803.50;;;1.14;56.00
12757;BME280;31601;48.042;12.240;2023-04-04T01:10:56;96801.91;;;1.24;55.52
12757;BME280;31601;48.042;12.240;2023-04-04T01:13:22;96794.13;;;1.13;56.03
12757;BME280;31601;48.042;12.240;2023-04-04T01:15:50;96796.31;;;0.82;56.51
12757;BME280;31601;48.042;12.240;2023-04-04T01:18:19;96795.16;;;1.11;55.87
12757;BME280;31601;48.042;12.240;2023-04-04T01:20:52;96791.47;;;0.78;56.47
12757;BME280;31601;48.042;12.240;2023-04-04T01:23:24;96788.56;;;0.82;56.58
12757;BME280;31601;48.042;12.240;2023-04-04T01:26:03;96791.47;;;1.02;56.39
12757;BME280;31601;48.042;12.240;2023-04-04T01:28:29;96782.19;;;0.99;56.29
12757;BME280;31601;48.042;12.240;2023-04-04T01:30:58;96775.47;;;0.97;56.19
12757;BME280;31601;48.042;12.240;2023-04-04T01:33:27;96787.91;;;0.92;56.44
12757;BME280;31601;48.042;12.240;2023-04-04T01:36:01;96780.41;;;0.51;57.66
12757;BME280;31601;48.042;12.240;2023-04-04T01:38:33;96779.50;;;0.40;57.63
12757;BME280;31601;48.042;12.240;2023-04-04T01:41:03;96781.28;;;0.63;57.62
12757;BME280;31601;48.042;12.240;2023-04-04T01:43:32;96786.56;;;0.62;57.52
12757;BME280;31601;48.042;12.240;2023-04-04T01:45:58;96784.34;;;0.44;57.93
12757;BME280;31601;48.042;12.240;2023-04-04T01:48:25;96784.41;;;0.56;57.87
12757;BME280;31601;48.042;12.240;2023-04-04T01:50:52;96775.53;;;0.60;57.43
12757;BME280;31601;48.042;12.240;2023-04-04T01:53:18;96776.75;;;0.67;57.44
12757;BME280;31601;48.042;12.240;2023-04-04T01:55:45;96772.13;;;0.83;56.99
12757;BME280;31601;48.042;12.240;2023-04-04T01:58:13;96773.81;;;0.47;58.05
12757;BME280;31601;48.042;12.240;2023-04-04T02:00:39;96775.34;;;0.50;57.92
12757;BME280;31601;48.042;12.240;2023-04-04T02:03:06;96774.44;;;0.75;57.53
12757;BME280;31601;48.042;12.240;2023-04-04T02:05:32;96773.94;;;0.70;57.40
12757;BME280;31601;48.042;12.240;2023-04-04T02:07:59;96767.44;;;0.64;57.63
12757;BME280;31601;48.042;12.240;2023-04-04T02:10:25;96770.63;;;0.44;58.30
12757;BME280;31601;48.042;12.240;2023-04-04T02:12:52;96769.66;;;0.45;58.22
12757;BME280;31601;48.042;12.240;2023-04-04T02:15:19;96768.91;;;0.56;58.06
12757;BME280;31601;48.042;12.240;2023-04-04T02:17:46;96763.41;;;0.36;58.79
12757;BME280;31601;48.042;12.240;2023-04-04T02:20:13;96763.09;;;0.41;58.84
12757;BME280;31601;48.042;12.240;2023-04-04T02:22:40;96766.84;;;0.61;58.15
12757;BME280;31601;48.042;12.240;2023-04-04T02:25:07;96762.13;;;0.42;58.48
12757;BME280;31601;48.042;12.240;2023-04-04T02:27:33;96770.94;;;0.39;58.77
12757;BME280;31601;48.042;12.240;2023-04-04T02:30:00;96772.75;;;0.13;59.38
12757;BME280;31601;48.042;12.240;2023-04-04T02:32:28;96758.69;;;0.17;59.97
12757;BME280;31601;48.042;12.240;2023-04-04T02:34:54;96763.72;;;0.31;59.43
12757;BME280;31601;48.042;12.240;2023-04-04T02:37:21;96757.66;;;0.20;59.78
12757;BME280;31601;48.042;12.240;2023-04-04T02:39:47;96762.81;;;0.20;60.05
12757;BME280;31601;48.042;12.240;2023-04-04T02:42:13;96759.09;;;0.11;60.05
12757;BME280;31601;48.042;12.240;2023-04-04T02:44:40;96765.22;;;0.10;60.21
12757;BME280;31601;48.042;12.240;2023-04-04T02:47:06;96764.22;;;-0.13;60.82
12757;BME280;31601;48.042;12.240;2023-04-04T02:49:34;96766.91;;;-0.28;61.79
12757;BME280;31601;48.042;12.240;2023-04-04T02:52:01;96768.63;;;-0.28;61.19
12757;BME280;31601;48.042;12.240;2023-04-04T02:54:28;96764.19;;;-0.39;61.98
12757;BME280;31601;48.042;12.240;2023-04-04T02:56:54;96770.28;;;-0.27;61.26
12757;BME280;31601;48.042;12.240;2023-04-04T02:59:21;96764.84;;;-0.35;61.60
12757;BME280;31601;48.042;12.240;2023-04-04T03:01:47;96760.69;;;-0.25;61.66
12757;BME280;31601;48.042;12.240;2023-04-04T03:04:14;96767.69;;;-0.53;62.40
12757;BME280;31601;48.042;12.240;2023-04-04T03:06:42;96765.44;;;-0.32;62.07
12757;BME280;31601;48.042;12.240;2023-04-04T03:09:09;96764.22;;;-0.26;61.24
12757;BME280;31601;48.042;12.240;2023-04-04T03:11:35;96762.38;;;-0.37;61.97
12757;BME280;31601;48.042;12.240;2023-04-04T03:14:02;96758.13;;;-0.38;61.64
12757;BME280;31601;48.042;12.240;2023-04-04T03:16:29;96760.81;;;-0.40;61.65
12757;BME280;31601;48.042;12.240;2023-04-04T03:18:55;96761.63;;;-0.39;61.94
12757;BME280;31601;48.042;12.240;2023-04-04T03:21:22;96757.91;;;-0.35;61.53
12757;BME280;31601;48.042;12.240;2023-04-04T03:23:49;96766.97;;;-0.42;61.79
12757;BME280;31601;48.042;12.240;2023-04-04T03:26:16;96760.00;;;-0.40;61.98
12757;BME280;31601;48.042;12.240;2023-04-04T03:28:43;96767.78;;;-0.55;62.52
12757;BME280;31601;48.042;12.240;2023-04-04T03:31:09;96764.50;;;-0.57;62.46
12757;BME280;31601;48.042;12.240;2023-04-04T03:33:36;96759.34;;;-0.57;62.23
12757;BME280;31601;48.042;12.240;2023-04-04T03:36:08;96762.53;;;-0.66;62.56
12757;BME280;31601;48.042;12.240;2023-04-04T03:38:35;96762.13;;;-0.60;62.48
12757;BME280;31601;48.042;12.240;2023-04-04T03:41:05;96759.13;;;-0.66;62.74
12757;BME280;31601;48.042;12.240;2023-04-04T03:43:32;96762.72;;;-0.69;62.99
12757;BME280;31601;48.042;12.240;2023-04-04T03:45:59;96760.44;;;-0.86;63.32
12757;BME280;31601;48.042;12.240;2023-04-04T03:48:26;96764.66;;;-0.85;63.33
12757;BME280;31601;48.042;12.240;2023-04-04T03:50:52;96765.91;;;-0.78;63.37
12757;BME280;31601;48.042;12.240;2023-04-04T03:53:19;96765.72;;;-0.75;62.97
12757;BME280;31601;48.042;12.240;2023-04-04T03:55:45;96767.13;;;-0.84;63.11
12757;BME280;31601;48.042;12.240;2023-04-04T03:58:13;96768.38;;;-0.89;63.29
12757;BME280;31601;48.042;12.240;2023-04-04T04:00:40;96771.59;;;-0.73;62.58
12757;BME280;31601;48.042;12.240;2023-04-04T04:03:06;96768.28;;;-0.75;62.94
12757;BME280;31601;48.042;12.240;2023-04-04T04:05:33;96769.59;;;-0.82;62.84
12757;BME280;31601;48.042;12.240;2023-04-04T04:07:59;96770.44;;;-0.82;63.04
12757;BME280;31601;48.042;12.240;2023-04-04T04:10:26;96774.03;;;-0.84;63.20
12757;BME280;31601;48.042;12.240;2023-04-04T04:12:52;96771.03;;;-0.91;63.20
12757;BME280;31601;48.042;12.240;2023-04-04T04:15:20;96780.31;;;-0.88;62.58
12757;BME280;31601;48.042;12.240;2023-04-04T04:17:46;96776.31;;;-0.93;63.21
12757;BME280;31601;48.042;12.240;2023-04-04T04:20:13;96773.72;;;-0.93;63.14
12757;BME280;31601;48.042;12.240;2023-04-04T04:22:44;96769.81;;;-0.85;62.89
12757;BME280;31601;48.042;12.240;2023-04-04T04:25:10;96778.56;;;-0.88;62.97
12757;BME280;31601;48.042;12.240;2023-04-04T04:27:37;96777.22;;;-0.94;63.51
12757;BME280;31601;48.042;12.240;2023-04-04T04:30:04;96779.50;;;-0.89;62.96
12757;BME280;31601;48.042;12.240;2023-04-04T04:32:32;96786.78;;;-0.96;63.62
12757;BME280;31601;48.042;12.240;2023-04-04T04:34:59;96794.81;;;-1.00;63.34
12757;BME280;31601;48.042;12.240;2023-04-04T04:37:25;96791.16;;;-1.11;63.53
12757;BME280;31601;48.042;12.240;2023-04-04T04:39:52;96784.91;;;-1.06;63.89
12757;BME280;31601;48.042;12.240;2023-04-04T04:42:19;96789.84;;;-1.31;64.32
12757;BME280;31601;48.042;12.240;2023-04-04T04:44:46;96798.75;;;-1.22;64.24
12757;BME280;31601;48.042;12.240;2023-04-04T04:47:12;96791.97;;;-1.10;63.68
12757;BME280;31601;48.042;12.240;2023-04-04T04:49:40;96798.59;;;-1.06;63.13
12757;BME280;31601;48.042;12.240;2023-04-04T04:52:08;96791.94;;;-0.96;62.96
12757;BME280;31601;48.042;12.240;2023-04-04T04:54:35;96802.88;;;-1.19;63.50
12757;BME280;31601;48.042;12.240;2023-04-04T04:57:01;96794.84;;;-1.15;63.44
12757;BME280;31601;48.042;12.240;2023-04-04T04:59:28;96805.53;;;-1.21;63.61
12757;BME280;31601;48.042;12.240;2023-04-04T05:01:54;96801.66;;;-1.14;63.46
12757;BME280;31601;48.042;12.240;2023-04-04T05:04:21;96807.03;;;-1.04;63.09
12757;BME280;31601;48.042;12.240;2023-04-04T05:06:48;96804.28;;;-1.28;63.86
12757;BME280;31601;48.042;12.240;2023-04-04T05:09:15;96803.44;;;-1.29;64.32
12757;BME280;31601;48.042;12.240;2023-04-04T05:11:41;96807.00;;;-1.17;63.58
12757;BME280;31601;48.042;12.240;2023-04-04T05:14:08;96811.63;;;-1.22;63.98
12757;BME280;31601;48.042;12.240;2023-04-04T05:16:34;96807.38;;;-1.23;64.45
12757;BME280;31601;48.042;12.240;2023-04-04T05:19:01;96808.00;;;-1.05;63.62
12757;BME280;31601;48.042;12.240;2023-04-04T05:21:27;96812.09;;;-1.02;63.50
12757;BME280;31601;48.042;12.240;2023-04-04T05:23:56;96804.97;;;-1.12;63.74
12757;BME280;31601;48.042;12.240;2023-04-04T05:26:22;96809.53;;;-1.02;63.79
12757;BME280;31601;48.042;12.240;2023-04-04T05:28:49;96820.97;;;-1.06;63.89
12757;BME280;31601;48.042;12.240;2023-04-04T05:31:15;96813.03;;;-1.03;63.89
12757;BME280;31601;48.042;12.240;2023-04-04T05:33:42;96817.91;;;-0.99;63.80
12757;BME280;31601;48.042;12.240;2023-04-04T05:36:09;96813.34;;;-0.68;63.18
12757;BME280;31601;48.042;12.240;2023-04-04T05:38:37;96817.84;;;-0.84;63.47
12757;BME280;31601;48.042;12.240;2023-04-04T05:41:04;96815.97;;;-0.82;63.27
12757;BME280;31601;48.042;12.240;2023-04-04T05:43:31;96814.78;;;-0.64;62.75
12757;BME280;31601;48.042;12.240;2023-04-04T05:45:57;96815.22;;;-0.57;62.56
12757;BME280;31601;48.042;12.240;2023-04-04T05:48:24;96816.84;;;-0.69;62.84
12757;BME280;31601;48.042;12.240;2023-04-04T05:50:50;96816.75;;;-0.55;62.08
12757;BME280;31601;48.042;12.240;2023-04-04T05:53:17;96813.78;;;-0.48;61.65
12757;BME280;31601;48.042;12.240;2023-04-04T05:55:43;96820.94;;;-0.13;61.30
12757;BME280;31601;48.042;12.240;2023-04-04T05:58:11;96819.91;;;-0.24;61.25
12757;BME280;31601;48.042;12.240;2023-04-04T06:00:37;96820.41;;;0.07;60.70
12757;BME280;31601;48.042;12.240;2023-04-04T06:03:04;96819.63;;;-0.06;60.85
12757;BME280;31601;48.042;12.240;2023-04-04T06:05:30;96816.97;;;0.32;59.99
12757;BME280;31601;48.042;12.240;2023-04-04T06:07:57;96824.50;;;0.35;59.80
12757;BME280;31601;48.042;12.240;2023-04-04T06:10:24;96821.22;;;0.33;59.37
12757;BME280;31601;48.042;12.240;2023-04-04T06:12:51;96822.34;;;0.29;59.57
12757;BME280;31601;48.042;12.240;2023-04-04T06:15:19;96822.78;;;0.23;59.19
12757;BME280;31601;48.042;12.240;2023-04-04T06:17:45;96812.91;;;0.54;58.72
12757;BME280;31601;48.042;12.240;2023-04-04T06:20:12;96812.97;;;0.28;58.80
12757;BME280;31601;48.042;12.240;2023-04-04T06:22:38;96818.66;;;0.70;58.05
12757;BME280;31601;48.042;12.240;2023-04-04T06:25:06;96816.81;;;0.97;57.32
12757;BME280;31601;48.042;12.240;2023-04-04T06:27:34;96822.69;;;0.75;58.11
12757;BME280;31601;48.042;12.240;2023-04-04T06:30:01;96809.63;;;1.13;57.88
12757;BME280;31601;48.042;12.240;2023-04-04T06:32:30;96810.31;;;1.39;57.06
12757;BME280;31601;48.042;12.240;2023-04-04T06:34:56;96819.31;;;1.58;56.18
12757;BME280;31601;48.042;12.240;2023-04-04T06:37:22;96816.16;;;1.66;54.61
12757;BME280;31601;48.042;12.240;2023-04-04T06:39:49;96814.38;;;1.66;55.22
12757;BME280;31601;48.042;12.240;2023-04-04T06:42:15;96818.47;;;1.57;53.39
12757;BME280;31601;48.042;12.240;2023-04-04T06:44:42;96810.13;;;1.65;53.24
12757;BME280;31601;48.042;12.240;2023-04-04T06:47:08;96808.75;;;1.61;53.35
12757;BME280;31601;48.042;12.240;2023-04-04T06:49:37;96809.38;;;2.10;52.64
12757;BME280;31601;48.042;12.240;2023-04-04T06:52:03;96805.53;;;2.04;52.32
12757;BME280;31601;48.042;12.240;2023-04-04T06:54:30;96808.81;;;2.29;51.82
12757;BME280;31601;48.042;12.240;2023-04-04T06:56:56;96811.75;;;2.02;51.52
12757;BME280;31601;48.042;12.240;2023-04-04T06:59:23;96806.13;;;2.30;51.45
12757;BME280;31601;48.042;12.240;2023-04-04T07:01:49;96804.09;;;2.45;50.89
12757;BME280;31601;48.042;12.240;2023-04-04T07:04:17;96808.94;;;2.27;50.79
12757;BME280;31601;48.042;12.240;2023-04-04T07:06:45;96803.13;;;2.58;50.01
12757;BME280;31601;48.042;12.240;2023-04-04T07:09:11;96806.03;;;2.98;49.74
12757;BME280;31601;48.042;12.240;2023-04-04T07:11:38;96796.91;;;3.36;49.35
12757;BME280;31601;48.042;12.240;2023-04-04T07:14:04;96802.41;;;2.67;49.48
12757;BME280;31601;48.042;12.240;2023-04-04T07:16:31;96800.28;;;2.83;49.02
12757;BME280;31601;48.042;12.240;2023-04-04T07:18:57;96800.44;;;2.71;49.71
12757;BME280;31601;48.042;12.240;2023-04-04T07:21:24;96796.22;;;2.36;50.14
12757;BME280;31601;48.042;12.240;2023-04-04T07:23:51;96797.38;;;2.54;49.96
12757;BME280;31601;48.042;12.240;2023-04-04T07:26:18;96801.75;;;2.54;49.78
12757;BME280;31601;48.042;12.240;2023-04-04T07:28:45;96794.53;;;2.68;48.98
12757;BME280;31601;48.042;12.240;2023-04-04T07:31:11;96795.28;;;2.92;48.67
12757;BME280;31601;48.042;12.240;2023-04-04T07:33:39;96790.97;;;2.92;48.36
12757;BME280;31601;48.042;12.240;2023-04-04T07:36:05;96794.44;;;3.14;47.79
12757;BME280;31601;48.042;12.240;2023-04-04T07:38:31;96785.03;;;3.34;47.63
12757;BME280;31601;48.042;12.240;2023-04-04T07:40:59;96781.81;;;3.42;47.19
12757;BME280;31601;48.042;12.240;2023-04-04T07:43:26;96787.41;;;3.26;47.16
12757;BME280;31601;48.042;12.240;2023-04-04T07:45:53;96788.41;;;2.69;46.97
12757;BME280;31601;48.042;12.240;2023-04-04T07:48:19;96802.47;;;2.99;46.78
12757;BME280;31601;48.042;12.240;2023-04-04T07:50:46;96802.41;;;3.22;45.78
12757;BME280;31601;48.042;12.240;2023-04-04T07:53:12;96791.72;;;3.04;45.87
12757;BME280;31601;48.042;12.240;2023-04-04T07:55:39;96794.06;;;3.07;44.20
12757;BME280;31601;48.042;12.240;2023-04-04T07:58:06;96790.47;;;3.31;44.29
12757;BME280;31601;48.042;12.240;2023-04-04T08:00:33;96790.09;;;3.35;43.23
12757;BME280;31601;48.042;12.240;2023-04-04T08:02:59;96791.88;;;3.77;41.20
12757;BME280;31601;48.042;12.240;2023-04-04T08:05:26;96792.81;;;3.97;41.06
12757;BME280;31601;48.042;12.240;2023-04-04T08:07:53;96800.31;;;3.69;39.17
12757;BME280;31601;48.042;12.240;2023-04-04T08:10:19;96789.50;;;4.26;40.26
12757;BME280;31601;48.042;12.240;2023-04-04T08:12:46;96794.16;;;3.91;40.28
12757;BME280;31601;48.042;12.240;2023-04-04T08:15:14;96799.72;;;4.48;40.24
12757;BME280;31601;48.042;12.240;2023-04-04T08:17:41;96794.28;;;4.21;40.05
12757;BME280;31601;48.042;12.240;2023-04-04T08:20:09;96795.38;;;3.66;38.70
12757;BME280;31601;48.042;12.240;2023-04-04T08:22:35;96799.34;;;3.49;38.70
12757;BME280;31601;48.042;12.240;2023-04-04T08:25:03;96797.16;;;3.33;39.58
12757;BME280;31601;48.042;12.240;2023-04-04T08:27:29;96794.31;;;3.36;37.85
12757;BME280;31601;48.042;12.240;2023-04-04T08:29:56;96801.03;;;4.02;38.20
12757;BME280;31601;48.042;12.240;2023-04-04T08:32:24;96801.69;;;3.94;36.79
12757;BME280;31601;48.042;12.240;2023-04-04T08:34:51;96804.66;;;3.90;36.61
12757;BME280;31601;48.042;12.240;2023-04-04T08:37:17;96803.47;;;3.94;37.60
12757;BME280;31601;48.042;12.240;2023-04-04T08:39:43;96804.34;;;3.62;37.06
12757;BME280;31601;48.042;12.240;2023-04-04T08:42:11;96806.75;;;3.54;37.07
12757;BME280;31601;48.042;12.240;2023-04-04T08:44:42;96804.72;;;3.79;36.94
12757;BME280;31601;48.042;12.240;2023-04-04T08:47:11;96800.63;;;4.28;37.50
12757;BME280;31601;48.042;12.240;2023-04-04T08:49:42;96797.81;;;4.20;36.17
12757;BME280;31601;48.042;12.240;2023-04-04T08:52:11;96801.94;;;4.63;35.55
12757;BME280;31601;48.042;12.240;2023-04-04T08:54:39;96802.31;;;4.48;35.61
12757;BME280;31601;48.042;12.240;2023-04-04T08:57:05;96806.81;;;4.77;35.88
12757;BME280;31601;48.042;12.240;2023-04-04T08:59:32;96799.97;;;4.86;35.24
12757;BME280;31601;48.042;12.240;2023-04-04T09:02:04;96794.81;;;5.45;36.11
12757;BME280;31601;48.042;12.240;2023-04-04T09:04:41;96801.94;;;5.13;34.20
12757;BME280;31601;48.042;12.240;2023-04-04T09:07:08;96796.84;;;5.02;33.92
12757;BME280;31601;48.042;12.240;2023-04-04T09:09:36;96800.06;;;4.65;34.58
12757;BME280;31601;48.042;12.240;2023-04-04T09:12:03;96793.66;;;4.07;35.40
12757;BME280;31601;48.042;12.240;2023-04-04T09:14:31;96790.75;;;4.22;35.66
12757;BME280;31601;48.042;12.240;2023-04-04T09:16:59;96799.38;;;4.01;35.87
12757;BME280;31601;48.042;12.240;2023-04-04T09:19:25;96803.25;;;4.38;36.33
12757;BME280;31601;48.042;12.240;2023-04-04T09:21:53;96788.06;;;5.03;36.06
12757;BME280;31601;48.042;12.240;2023-04-04T09:24:19;96790.22;;;4.78;36.04
12757;BME280;31601;48.042;12.240;2023-04-04T09:26:46;96795.19;;;5.01;36.09
12757;BME280;31601;48.042;12.240;2023-04-04T09:29:13;96789.59;;;5.15;35.79
12757;BME280;31601;48.042;12.240;2023-04-04T09:31:40;96786.31;;;5.52;35.82
12757;BME280;31601;48.042;12.240;2023-04-04T09:34:11;96794.69;;;5.27;34.19
12757;BME280;31601;48.042;12.240;2023-04-04T09:36:38;96801.88;;;4.84;35.74
12757;BME280;31601;48.042;12.240;2023-04-04T09:39:06;96792.53;;;4.62;36.60
12757;BME280;31601;48.042;12.240;2023-04-04T09:41:32;96795.91;;;5.23;36.52
12757;BME280;31601;48.042;12.240;2023-04-04T09:43:59;96810.50;;;4.34;38.15
12757;BME280;31601;48.042;12.240;2023-04-04T09:46:26;96798.94;;;4.17;38.38
12757;BME280;31601;48.042;12.240;2023-04-04T09:48:52;96800.16;;;4.23;38.45
12757;BME280;31601;48.042;12.240;2023-04-04T09:51:19;96808.19;;;3.47;36.90
12757;BME280;31601;48.042;12.240;2023-04-04T09:53:46;96809.28;;;3.65;39.29
12757;BME280;31601;48.042;12.240;2023-04-04T09:56:14;96802.19;;;3.67;40.65
12757;BME280;31601;48.042;12.240;2023-04-04T09:58:45;96802.13;;;3.79;39.65
12757;BME280;31601;48.042;12.240;2023-04-04T10:01:12;96802.25;;;4.29;38.73
12757;BME280;31601;48.042;12.240;2023-04-04T10:03:39;96799.31;;;4.43;38.55
12757;BME280;31601;48.042;12.240;2023-04-04T10:06:06;96801.41;;;3.76;39.85
12757;BME280;31601;48.042;12.240;2023-04-04T10:08:37;96806.88;;;3.94;36.71
12757;BME280;31601;48.042;12.240;2023-04-04T10:11:04;96800.78;;;3.84;35.35
12757;BME280;31601;48.042;12.240;2023-04-04T10:13:34;96791.75;;;4.71;36.75
12757;BME280;31601;48.042;12.240;2023-04-04T10:16:03;96793.56;;;5.19;34.15
12757;BME280;31601;48.042;12.240;2023-04-04T10:18:31;96795.06;;;5.12;33.83
12757;BME280;31601;48.042;12.240;2023-04-04T10:21:00;96798.50;;;5.32;33.94
12757;BME280;31601;48.042;12.240;2023-04-04T10:23:27;96791.91;;;5.57;34.55
12757;BME280;31601;48.042;12.240;2023-04-04T10:25:54;96800.44;;;5.20;33.89
12757;BME280;31601;48.042;12.240;2023-04-04T10:28:22;96795.38;;;5.29;35.70
12757;BME280;31601;48.042;12.240;2023-04-04T10:30:56;96797.56;;;5.24;34.36
12757;BME280;31601;48.042;12.240;2023-04-04T10:33:31;96796.44;;;4.46;33.81
12757;BME280;31601;48.042;12.240;2023-04-04T10:36:05;96802.94;;;4.72;36.19
12757;BME280;31601;48.042;12.240;2023-04-04T10:38:39;96803.84;;;5.21;37.22
12757;BME280;31601;48.042;12.240;2023-04-04T10:41:07;96802.75;;;5.33;36.41
12757;BME280;31601;48.042;12.240;2023-04-04T10:43:39;96805.81;;;4.78;36.10
12757;BME280;31601;48.042;12.240;2023-04-04T10:46:10;96806.50;;;4.71;37.14
12757;BME280;31601;48.042;12.240;2023-04-04T10:48:39;96802.06;;;5.41;35.93
12757;BME280;31601;48.042;12.240;2023-04-04T10:51:06;96812.56;;;4.91;35.58
12757;BME280;31601;48.042;12.240;2023-04-04T10:53:34;96817.53;;;4.63;36.33
12757;BME280;31601;48.042;12.240;2023-04-04T10:56:01;96805.44;;;4.33;36.64
12757;BME280;31601;48.042;12.240;2023-04-04T10:58:28;96812.88;;;4.26;37.89
12757;BME280;31601;48.042;12.240;2023-04-04T11:00:55;96804.78;;;4.40;36.39
12757;BME280;31601;48.042;12.240;2023-04-04T11:03:24;96802.41;;;4.68;36.50
12757;BME280;31601;48.042;12.240;2023-04-04T11:05:50;96798.81;;;4.69;34.92
12757;BME280;31601;48.042;12.240;2023-04-04T11:08:26;96802.47;;;4.16;37.18
12757;BME280;31601;48.042;12.240;2023-04-04T11:10:54;96799.72;;;3.87;36.95
12757;BME280;31601;48.042;12.240;2023-04-04T11:13:24;96788.94;;;4.53;36.24
12757;BME280;31601;48.042;12.240;2023-04-04T11:15:55;96787.44;;;5.20;37.29
12757;BME280;31601;48.042;12.240;2023-04-04T11:18:44;96800.00;;;4.96;35.33
12757;BME280;31601;48.042;12.240;2023-04-04T11:21:13;96782.34;;;5.58;36.02
12757;BME280;31601;48.042;12.240;2023-04-04T11:24:12;96784.19;;;6.42;35.52
12757;BME280;31601;48.042;12.240;2023-04-04T11:26:40;96783.00;;;6.37;32.16
12757;BME280;31601;48.042;12.240;2023-04-04T11:29:07;96782.63;;;6.22;33.41
12757;BME280;31601;48.042;12.240;2023-04-04T11:31:38;96782.31;;;6.62;32.93
12757;BME280;31601;48.042;12.240;2023-04-04T11:34:07;96778.94;;;6.98;32.16
12757;BME280;31601;48.042;12.240;2023-04-04T11:36:48;96767.28;;;6.74;32.07
12757;BME280;31601;48.042;12.240;2023-04-04T11:39:23;96774.72;;;6.69;34.33
12757;BME280;31601;48.042;12.240;2023-04-04T11:41:52;96771.09;;;5.57;35.27
12757;BME280;31601;48.042;12.240;2023-04-04T11:44:19;96783.75;;;4.63;36.82
12757;BME280;31601;48.042;12.240;2023-04-04T11:46:47;96785.59;;;4.41;38.24
12757;BME280;31601;48.042;12.240;2023-04-04T11:49:16;96782.94;;;4.53;38.25
12757;BME280;31601;48.042;12.240;2023-04-04T11:51:44;96767.56;;;5.10;36.70
12757;BME280;31601;48.042;12.240;2023-04-04T11:54:12;96773.16;;;5.25;37.39
12757;BME280;31601;48.042;12.240;2023-04-04T11:56:40;96770.41;;;4.97;35.83
12757;BME280;31601;48.042;12.240;2023-04-04T11:59:09;96771.75;;;5.79;35.03
12757;BME280;31601;48.042;12.240;2023-04-04T12:01:36;96759.53;;;6.37;35.08
12757;BME280;31601;48.042;12.240;2023-04-04T12:04:03;96763.88;;;6.08;33.34
12757;BME280;31601;48.042;12.240;2023-04-04T12:06:31;96757.56;;;6.11;32.21
12757;BME280;31601;48.042;12.240;2023-04-04T12:09:00;96753.31;;;6.48;32.51
12757;BME280;31601;48.042;12.240;2023-04-04T12:11:29;96757.28;;;6.14;33.82
12757;BME280;31601;48.042;12.240;2023-04-04T12:13:56;96755.81;;;6.85;33.65
12757;BME280;31601;48.042;12.240;2023-04-04T12:16:23;96756.28;;;6.98;30.69
12757;BME280;31601;48.042;12.240;2023-04-04T12:18:49;96749.00;;;7.64;32.41
12757;BME280;31601;48.042;12.240;2023-04-04T12:21:15;96735.63;;;7.94;31.48
12757;BME280;31601;48.042;12.240;2023-04-04T12:23:45;96747.09;;;7.30;32.66
12757;BME280;31601;48.042;12.240;2023-04-04T12:26:13;96742.13;;;7.37;30.07
12757;BME280;31601;48.042;12.240;2023-04-04T12:28:41;96730.00;;;8.06;30.38
12757;BME280;31601;48.042;12.240;2023-04-04T12:31:09;96737.72;;;8.16;30.19
12757;BME280;31601;48.042;12.240;2023-04-04T12:33:36;96737.00;;;8.75;30.27
12757;BME280;31601;48.042;12.240;2023-04-04T12:36:04;96734.16;;;8.60;32.39
12757;BME280;31601;48.042;12.240;2023-04-04T12:38:31;96749.25;;;6.81;32.84
12757;BME280;31601;48.042;12.240;2023-04-04T12:40:59;96757.84;;;6.08;33.20
12757;BME280;31601;48.042;12.240;2023-04-04T12:43:26;96759.75;;;5.49;34.98
12757;BME280;31601;48.042;12.240;2023-04-04T12:45:55;96746.03;;;5.47;35.93
12757;BME280;31601;48.042;12.240;2023-04-04T12:48:25;96755.78;;;5.06;36.20
12757;BME280;31601;48.042;12.240;2023-04-04T12:50:53;96749.88;;;4.94;36.07
12757;BME280;31601;48.042;12.240;2023-04-04T12:53:21;96741.81;;;5.16;36.29
12757;BME280;31601;48.042;12.240;2023-04-04T12:55:49;96741.94;;;5.25;36.10
12757;BME280;31601;48.042;12.240;2023-04-04T12:58:19;96746.75;;;4.80;36.19
12757;BME280;31601;48.042;12.240;2023-04-04T13:00:47;96734.16;;;5.25;35.43
12757;BME280;31601;48.042;12.240;2023-04-04T13:03:15;96735.38;;;5.40;34.60